Terminal Aerodrome Forecast
Issued by NWS Bismarck, ND

Home | Current Version | Previous Version | Text Only | Print | Product List | Glossary On
Versions: 1 2 3 4 5 6 7 8 9 10 11 12 13 14
000
FTUS43 KBIS 272300
TAFBIS
TAF
KBIS 272324Z 2800/2824 VRB05KT P6SM BKN150
     FM281400 32009KT P6SM BKN100
     FM281800 32018G26KT P6SM BKN012=

USA.gov is the U.S. government's official web portal to all federal, state and local government web resources and services.